Terminal Aerodrome Forecast
Issued by NWS

Home | Current Version | Previous Version | Text Only | Print | Product List | Glossary Off
Versions: 1 2 3 4 5 6 7 8 9 10 11 12 13

000
FTUS43 KBIS 021121
TAFMOT
TAF
KMOT 021121Z 0212/0312 23010KT P6SM SCT120
     FM021600 24010KT P6SM VCSH SCT090 BKN110
     FM021900 27013G22KT P6SM VCTS BKN110CB
     FM022100 28012G22KT P6SM SCT130
     FM030100 30009KT P6SM SCT090 SCT130=

USA.gov is the U.S. government's official web portal to all federal, state and local government web resources and services.